createdAt,value
2017-12-19T00:00:34.237Z,8.00
2017-12-19T00:01:34.190Z,8.00
2017-12-19T00:02:34.181Z,8.00
2017-12-19T00:03:34.172Z,8.00
2017-12-19T00:04:34.167Z,8.00
2017-12-19T00:05:34.159Z,8.00
2017-12-19T00:06:34.148Z,8.00
2017-12-19T00:07:34.140Z,8.00
2017-12-19T00:08:34.133Z,8.00
2017-12-19T00:09:34.126Z,8.00
2017-12-19T00:10:34.129Z,8.00
2017-12-19T00:11:34.109Z,8.00
2017-12-19T00:12:34.101Z,8.00
2017-12-19T00:13:34.098Z,8.00
2017-12-19T00:14:34.099Z,8.00
2017-12-19T00:15:34.083Z,8.00
2017-12-19T00:16:34.071Z,8.00
2017-12-19T00:17:34.069Z,8.00
2017-12-19T00:18:34.056Z,8.00
2017-12-19T00:19:34.048Z,8.00
2017-12-19T00:20:34.042Z,8.00
2017-12-19T00:21:34.033Z,8.00
2017-12-19T00:22:34.023Z,8.00
2017-12-19T00:23:34.031Z,8.00
2017-12-19T00:24:34.043Z,8.00
2017-12-19T00:25:34.001Z,8.00
2017-12-19T00:26:33.994Z,8.00
2017-12-19T00:27:33.986Z,8.00
2017-12-19T00:28:33.978Z,8.00
2017-12-19T00:29:33.968Z,8.00
2017-12-19T00:30:33.966Z,8.00
2017-12-19T00:31:33.955Z,8.00
2017-12-19T00:32:33.945Z,8.00
2017-12-19T00:33:33.938Z,8.00
2017-12-19T00:34:33.932Z,8.00
2017-12-19T00:35:33.920Z,8.00
2017-12-19T00:36:33.914Z,8.00
2017-12-19T00:37:33.906Z,8.00
2017-12-19T00:38:33.898Z,8.00
2017-12-19T00:39:33.888Z,8.00
2017-12-19T00:40:33.881Z,8.00
2017-12-19T00:41:33.876Z,8.00
2017-12-19T00:42:33.866Z,8.00
2017-12-19T00:43:33.860Z,8.00
2017-12-19T00:44:33.852Z,8.00
2017-12-19T00:45:33.844Z,8.00
2017-12-19T00:46:33.833Z,8.00
2017-12-19T00:47:33.825Z,8.00
2017-12-19T00:48:33.819Z,8.00
2017-12-19T00:49:33.811Z,8.00
2017-12-19T00:50:33.802Z,8.00
2017-12-19T00:51:33.794Z,8.00
2017-12-19T00:52:33.789Z,8.00
2017-12-19T00:53:33.780Z,8.00
2017-12-19T00:54:33.771Z,8.00
2017-12-19T00:55:33.763Z,8.00
2017-12-19T00:56:33.761Z,8.00
2017-12-19T00:57:33.748Z,8.00
2017-12-19T00:58:33.738Z,8.00
2017-12-19T00:59:33.731Z,8.00
2017-12-19T01:00:33.739Z,8.00
2017-12-19T01:01:33.715Z,8.00
2017-12-19T01:02:33.707Z,8.00
2017-12-19T01:03:33.703Z,8.00
2017-12-19T01:04:33.698Z,8.00
2017-12-19T01:05:33.716Z,8.00
2017-12-19T01:06:33.674Z,8.00
2017-12-19T01:07:33.670Z,8.00
2017-12-19T01:08:33.662Z,8.00
2017-12-19T01:09:33.650Z,8.00
2017-12-19T01:10:33.644Z,8.00
2017-12-19T01:11:33.636Z,8.00
2017-12-19T01:12:33.629Z,8.00
2017-12-19T01:13:33.624Z,8.00
2017-12-19T01:14:33.612Z,8.00
2017-12-19T01:15:33.605Z,8.00
2017-12-19T01:16:33.599Z,8.00
2017-12-19T01:17:34.012Z,8.00
2017-12-19T01:18:34.313Z,8.00
2017-12-19T01:19:33.573Z,8.00
2017-12-19T01:20:33.566Z,8.00
2017-12-19T01:21:33.557Z,8.00
2017-12-19T01:22:33.548Z,8.00
2017-12-19T01:23:33.541Z,8.00
2017-12-19T01:24:33.531Z,8.00
2017-12-19T01:25:33.531Z,8.00
2017-12-19T01:26:33.516Z,8.00
2017-12-19T01:27:33.510Z,8.00
2017-12-19T01:28:33.502Z,8.00
2017-12-19T01:29:33.493Z,8.00
2017-12-19T01:30:33.486Z,8.00
2017-12-19T01:31:33.476Z,8.00
2017-12-19T01:32:33.470Z,8.00
2017-12-19T01:33:33.464Z,8.00
2017-12-19T01:34:33.453Z,8.00
2017-12-19T01:35:33.444Z,8.00
2017-12-19T01:36:33.439Z,8.00
2017-12-19T01:37:33.428Z,8.00
2017-12-19T01:38:33.422Z,8.00
2017-12-19T01:39:33.412Z,8.00
2017-12-19T01:40:33.404Z,8.00
2017-12-19T01:41:33.399Z,8.00
2017-12-19T01:42:33.389Z,8.00
2017-12-19T01:43:33.382Z,8.00
2017-12-19T01:44:33.373Z,8.00
2017-12-19T01:45:33.363Z,8.00
2017-12-19T01:46:33.358Z,8.00
2017-12-19T01:47:33.346Z,8.00
2017-12-19T01:48:33.344Z,8.00
2017-12-19T01:49:33.338Z,8.00
2017-12-19T01:50:33.324Z,8.00
2017-12-19T01:51:33.317Z,8.00
2017-12-19T01:52:33.309Z,8.00
2017-12-19T01:53:33.300Z,8.00
2017-12-19T01:54:33.291Z,8.00
2017-12-19T01:55:33.286Z,8.00
2017-12-19T01:56:33.280Z,8.00
2017-12-19T01:57:33.268Z,8.00
2017-12-19T01:58:33.262Z,8.00
2017-12-19T01:59:33.253Z,8.00
2017-12-19T02:00:33.244Z,8.00
2017-12-19T02:01:33.250Z,8.00
2017-12-19T02:02:33.230Z,8.00
2017-12-19T02:03:33.222Z,8.00
2017-12-19T02:04:33.214Z,8.00
2017-12-19T02:05:33.207Z,8.00
2017-12-19T02:06:33.197Z,8.00
2017-12-19T02:07:33.188Z,8.00
2017-12-19T02:08:33.180Z,8.00
2017-12-19T02:09:33.174Z,8.00
2017-12-19T02:10:33.165Z,8.00
2017-12-19T02:11:33.157Z,8.00
2017-12-19T02:12:33.148Z,8.00
2017-12-19T02:13:33.144Z,8.00
2017-12-19T02:14:33.133Z,8.00
2017-12-19T02:15:33.125Z,8.00
2017-12-19T02:16:33.117Z,8.00
2017-12-19T02:17:33.107Z,8.00
2017-12-19T02:18:33.100Z,8.00
2017-12-19T02:19:33.095Z,8.00
2017-12-19T02:20:33.085Z,8.00
2017-12-19T02:21:33.080Z,8.00
2017-12-19T02:22:33.069Z,8.00
2017-12-19T02:23:33.062Z,8.00
2017-12-19T02:24:33.055Z,8.00
2017-12-19T02:25:33.046Z,8.00
2017-12-19T02:26:33.040Z,8.00
2017-12-19T02:27:33.028Z,8.00
2017-12-19T02:28:33.019Z,8.00
2017-12-19T02:29:33.014Z,8.00
2017-12-19T02:30:33.007Z,8.00
2017-12-19T02:31:33.008Z,8.00
2017-12-19T02:32:32.990Z,8.00
2017-12-19T02:33:32.984Z,8.00
2017-12-19T02:34:32.975Z,8.00
2017-12-19T02:35:32.964Z,8.00
2017-12-19T02:36:32.966Z,8.00
2017-12-19T02:37:32.953Z,8.00
2017-12-19T02:38:32.943Z,8.00
2017-12-19T02:39:32.933Z,8.00
2017-12-19T02:40:32.929Z,8.00
2017-12-19T02:41:32.919Z,8.00
2017-12-19T02:42:32.909Z,8.00
2017-12-19T02:43:32.913Z,8.00
2017-12-19T02:44:32.895Z,8.00
2017-12-19T02:45:32.889Z,8.00
2017-12-19T02:46:32.879Z,8.00
2017-12-19T02:47:32.871Z,8.00
2017-12-19T02:48:32.863Z,8.00
2017-12-19T02:49:32.855Z,8.00
2017-12-19T02:50:32.844Z,8.00
2017-12-19T02:51:32.839Z,8.00
2017-12-19T02:52:32.831Z,8.00
2017-12-19T02:53:32.824Z,8.00
2017-12-19T02:54:32.817Z,8.00
2017-12-19T02:55:32.809Z,8.00
2017-12-19T02:56:32.799Z,8.00
2017-12-19T02:57:32.883Z,8.00
2017-12-19T02:58:32.784Z,8.00
2017-12-19T02:59:32.786Z,8.00
2017-12-19T03:00:32.767Z,8.00
2017-12-19T03:01:32.763Z,8.00
2017-12-19T03:02:32.753Z,8.00
2017-12-19T03:03:32.742Z,8.00
2017-12-19T03:04:32.737Z,8.00
2017-12-19T03:05:32.732Z,8.00
2017-12-19T03:06:32.720Z,8.00
2017-12-19T03:07:32.716Z,8.00
2017-12-19T03:08:32.706Z,8.00
2017-12-19T03:09:32.727Z,8.00
2017-12-19T03:10:32.690Z,8.00
2017-12-19T03:11:32.684Z,8.00
2017-12-19T03:12:33.379Z,8.00
2017-12-19T03:13:32.669Z,8.00
2017-12-19T03:14:32.658Z,8.00
2017-12-19T03:15:32.652Z,8.00
2017-12-19T03:16:32.643Z,8.00
2017-12-19T03:17:32.638Z,4.00
2017-12-19T03:18:32.630Z,4.00
2017-12-19T03:19:32.619Z,8.00
2017-12-19T03:20:32.612Z,8.00
2017-12-19T03:21:32.604Z,8.00
2017-12-19T03:22:32.595Z,8.00
2017-12-19T03:23:32.589Z,8.00
2017-12-19T03:24:32.579Z,8.00
2017-12-19T03:25:32.572Z,8.00
2017-12-19T03:26:32.565Z,8.00
2017-12-19T03:27:32.556Z,4.00
2017-12-19T03:28:32.548Z,8.00
2017-12-19T03:29:32.546Z,8.00
2017-12-19T03:30:32.535Z,8.00
2017-12-19T03:31:32.524Z,8.00
2017-12-19T03:32:32.810Z,8.00
2017-12-19T03:33:32.553Z,4.00
2017-12-19T03:34:33.106Z,8.00
2017-12-19T03:35:32.494Z,8.00
2017-12-19T03:36:32.488Z,8.00
2017-12-19T03:37:32.479Z,8.00
2017-12-19T03:38:32.471Z,8.00
2017-12-19T03:39:32.461Z,8.00
2017-12-19T03:40:32.452Z,8.00
2017-12-19T03:41:32.448Z,8.00
2017-12-19T03:42:32.437Z,8.00
2017-12-19T03:43:32.429Z,8.00
2017-12-19T03:44:32.422Z,8.00
2017-12-19T03:45:32.414Z,8.00
2017-12-19T03:46:32.406Z,8.00
2017-12-19T03:47:32.398Z,4.00
2017-12-19T03:48:32.392Z,4.00
2017-12-19T03:49:32.384Z,8.00
2017-12-19T03:50:32.375Z,8.00
2017-12-19T03:51:32.366Z,8.00
2017-12-19T03:52:32.361Z,8.00
2017-12-19T03:53:32.353Z,8.00
2017-12-19T03:54:32.343Z,8.00
2017-12-19T03:55:32.338Z,8.00
2017-12-19T03:56:32.327Z,8.00
2017-12-19T03:57:32.320Z,8.00
2017-12-19T03:58:32.313Z,8.00
2017-12-19T03:59:32.305Z,8.00
2017-12-19T04:00:32.296Z,8.00
2017-12-19T04:01:32.294Z,4.00
2017-12-19T04:02:32.281Z,8.00
2017-12-19T04:03:32.273Z,8.00
2017-12-19T04:04:32.371Z,4.00
2017-12-19T04:05:32.260Z,8.00
2017-12-19T04:06:32.253Z,8.00
2017-12-19T04:07:32.244Z,8.00
2017-12-19T04:08:32.235Z,8.00
2017-12-19T04:09:32.233Z,8.00
2017-12-19T04:10:32.220Z,8.00
2017-12-19T04:11:32.212Z,8.00
2017-12-19T04:12:32.206Z,8.00
2017-12-19T04:13:32.199Z,8.00
2017-12-19T04:14:32.188Z,8.00
2017-12-19T04:15:32.182Z,8.00
2017-12-19T04:16:32.176Z,8.00
2017-12-19T04:17:32.224Z,8.00
2017-12-19T04:18:33.170Z,8.00
2017-12-19T04:19:32.152Z,8.00
2017-12-19T04:20:32.142Z,8.00
2017-12-19T04:21:32.140Z,8.00
2017-12-19T04:22:32.129Z,8.00
2017-12-19T04:23:32.126Z,8.00
2017-12-19T04:24:32.112Z,8.00
2017-12-19T04:25:32.111Z,8.00
2017-12-19T04:26:32.099Z,8.00
2017-12-19T04:27:32.087Z,8.00
2017-12-19T04:28:32.080Z,8.00
2017-12-19T04:29:32.076Z,8.00
2017-12-19T04:30:32.069Z,8.00
2017-12-19T04:31:32.059Z,8.00
2017-12-19T04:32:32.052Z,8.00
2017-12-19T04:33:32.044Z,8.00
2017-12-19T04:34:32.036Z,8.00
2017-12-19T04:35:32.028Z,8.00
2017-12-19T04:36:32.022Z,8.00
2017-12-19T04:37:32.013Z,8.00
2017-12-19T04:38:32.006Z,8.00
2017-12-19T04:39:31.996Z,8.00
2017-12-19T04:40:31.990Z,8.00
2017-12-19T04:41:31.982Z,8.00
2017-12-19T04:42:31.972Z,8.00
2017-12-19T04:43:31.965Z,8.00
2017-12-19T04:44:31.957Z,8.00
2017-12-19T04:45:31.962Z,8.00
2017-12-19T04:46:31.941Z,8.00
2017-12-19T04:47:31.933Z,8.00
2017-12-19T04:48:31.925Z,8.00
2017-12-19T04:49:31.919Z,8.00
2017-12-19T04:50:31.916Z,8.00
2017-12-19T04:51:31.903Z,8.00
2017-12-19T04:52:31.894Z,8.00
2017-12-19T04:53:31.885Z,8.00
2017-12-19T04:54:31.878Z,8.00
2017-12-19T04:55:31.871Z,8.00
2017-12-19T04:56:31.863Z,8.00
2017-12-19T04:57:31.854Z,8.00
2017-12-19T04:58:31.848Z,8.00
2017-12-19T04:59:31.840Z,8.00
2017-12-19T05:00:31.831Z,8.00
2017-12-19T05:01:31.832Z,8.00
2017-12-19T05:02:31.815Z,8.00
2017-12-19T05:03:31.806Z,8.00
2017-12-19T05:04:31.799Z,8.00
2017-12-19T05:05:31.794Z,8.00
2017-12-19T05:06:31.785Z,8.00
2017-12-19T05:07:31.780Z,8.00
2017-12-19T05:08:31.769Z,8.00
2017-12-19T05:09:31.761Z,8.00
2017-12-19T05:10:31.751Z,8.00
2017-12-19T05:11:31.747Z,8.00
2017-12-19T05:12:31.737Z,8.00
2017-12-19T05:13:31.730Z,8.00
2017-12-19T05:14:31.802Z,8.00
2017-12-19T05:15:31.715Z,8.00
2017-12-19T05:16:31.706Z,8.00
2017-12-19T05:17:31.698Z,8.00
2017-12-19T05:18:31.692Z,8.00
2017-12-19T05:19:31.870Z,8.00
2017-12-19T05:20:31.676Z,8.00
2017-12-19T05:21:31.667Z,8.00
2017-12-19T05:22:31.658Z,8.00
2017-12-19T05:23:31.652Z,8.00
2017-12-19T05:24:31.645Z,8.00
2017-12-19T05:25:31.639Z,8.00
2017-12-19T05:26:31.628Z,8.00
2017-12-19T05:27:31.621Z,8.00
2017-12-19T05:28:32.827Z,8.00
2017-12-19T05:29:31.608Z,8.00
2017-12-19T05:30:31.598Z,8.00
2017-12-19T05:31:31.593Z,8.00
2017-12-19T05:32:31.583Z,8.00
2017-12-19T05:33:31.577Z,16.00
2017-12-19T05:34:31.570Z,12.00
2017-12-19T05:35:31.564Z,16.00
2017-12-19T05:36:31.556Z,16.00
2017-12-19T05:37:31.547Z,16.00
2017-12-19T05:38:31.540Z,16.00
2017-12-19T05:39:31.533Z,16.00
2017-12-19T05:40:31.526Z,16.00
2017-12-19T05:41:31.519Z,16.00
2017-12-19T05:42:31.509Z,16.00
2017-12-19T05:43:31.502Z,16.00
2017-12-19T05:44:31.496Z,16.00
2017-12-19T05:45:31.488Z,16.00
2017-12-19T05:46:31.480Z,16.00
2017-12-19T05:47:31.471Z,16.00
2017-12-19T05:48:31.466Z,16.00
2017-12-19T05:49:31.459Z,16.00
2017-12-19T05:50:31.452Z,16.00
2017-12-19T05:51:31.446Z,16.00
2017-12-19T05:52:31.437Z,16.00
2017-12-19T05:53:31.429Z,16.00
2017-12-19T05:54:31.422Z,16.00
2017-12-19T05:55:31.415Z,16.00
2017-12-19T05:56:31.410Z,16.00
2017-12-19T05:57:33.310Z,16.00
2017-12-19T05:58:31.391Z,16.00
2017-12-19T05:59:31.385Z,16.00
2017-12-19T06:00:31.379Z,16.00
2017-12-19T06:01:31.370Z,16.00
2017-12-19T06:02:31.362Z,16.00
2017-12-19T06:03:31.354Z,16.00
2017-12-19T06:04:31.349Z,16.00
2017-12-19T06:05:31.343Z,16.00
2017-12-19T06:06:31.332Z,16.00
2017-12-19T06:07:31.328Z,16.00
2017-12-19T06:08:33.878Z,16.00
2017-12-19T06:09:31.312Z,16.00
2017-12-19T06:10:31.305Z,16.00
2017-12-19T06:11:31.297Z,16.00
2017-12-19T06:12:31.292Z,16.00
2017-12-19T06:13:31.292Z,16.00
2017-12-19T06:14:31.276Z,16.00
2017-12-19T06:15:31.272Z,16.00
2017-12-19T06:16:31.264Z,16.00
2017-12-19T06:17:31.257Z,16.00
2017-12-19T06:18:31.247Z,16.00
2017-12-19T06:19:31.243Z,16.00
2017-12-19T06:20:31.236Z,16.00
2017-12-19T06:21:31.227Z,16.00
2017-12-19T06:22:31.218Z,16.00
2017-12-19T06:23:31.213Z,16.00
2017-12-19T06:24:31.206Z,16.00
2017-12-19T06:25:31.197Z,16.00
2017-12-19T06:26:31.191Z,16.00
2017-12-19T06:27:31.184Z,16.00
2017-12-19T06:28:31.178Z,16.00
2017-12-19T06:29:31.171Z,16.00
2017-12-19T06:30:31.162Z,16.00
2017-12-19T06:31:31.159Z,20.00
2017-12-19T06:32:31.155Z,16.00
2017-12-19T06:33:31.141Z,16.00
2017-12-19T06:34:31.135Z,16.00
2017-12-19T06:35:31.134Z,16.00
2017-12-19T06:36:31.123Z,16.00
2017-12-19T06:37:31.112Z,16.00
2017-12-19T06:38:31.105Z,16.00
2017-12-19T06:39:31.099Z,16.00
2017-12-19T06:40:31.102Z,20.00
2017-12-19T06:41:31.086Z,20.00
2017-12-19T06:42:31.173Z,20.00
2017-12-19T06:43:31.070Z,16.00
2017-12-19T06:44:31.066Z,16.00
2017-12-19T06:45:31.055Z,16.00
2017-12-19T06:46:31.049Z,16.00
2017-12-19T06:47:31.043Z,20.00
2017-12-19T06:48:31.035Z,20.00
2017-12-19T06:49:31.027Z,20.00
2017-12-19T06:50:31.021Z,20.00
2017-12-19T06:51:31.025Z,20.00
2017-12-19T06:52:31.006Z,20.00
2017-12-19T06:53:31.000Z,20.00
2017-12-19T06:54:31.002Z,20.00
2017-12-19T06:55:30.986Z,20.00
2017-12-19T06:56:30.978Z,20.00
2017-12-19T06:57:30.972Z,24.00
2017-12-19T06:58:30.967Z,20.00
2017-12-19T06:59:30.959Z,20.00
2017-12-19T07:00:30.952Z,20.00
2017-12-19T07:01:30.943Z,24.00
2017-12-19T07:02:30.949Z,28.00
2017-12-19T07:03:30.927Z,24.00
2017-12-19T07:04:30.923Z,24.00
2017-12-19T07:05:30.914Z,28.00
2017-12-19T07:06:30.908Z,28.00
2017-12-19T07:07:30.903Z,28.00
2017-12-19T07:08:30.896Z,32.00
2017-12-19T07:09:30.904Z,32.00
2017-12-19T07:10:30.881Z,32.00
2017-12-19T07:11:30.873Z,36.00
2017-12-19T07:12:30.867Z,36.00
2017-12-19T07:13:30.859Z,40.00
2017-12-19T07:14:30.862Z,44.00
2017-12-19T07:15:30.846Z,44.00
2017-12-19T07:16:30.844Z,48.00
2017-12-19T07:17:31.038Z,48.00
2017-12-19T07:18:31.664Z,48.00
2017-12-19T07:19:30.819Z,48.00
2017-12-19T07:20:30.815Z,52.00
2017-12-19T07:21:30.818Z,56.00
2017-12-19T07:22:30.795Z,56.00
2017-12-19T07:23:30.788Z,60.00
2017-12-19T07:24:30.783Z,60.00
2017-12-19T07:25:30.776Z,60.00
2017-12-19T07:26:30.769Z,64.00
2017-12-19T07:27:30.760Z,64.00
2017-12-19T07:28:30.758Z,64.00
2017-12-19T07:29:30.747Z,68.00
2017-12-19T07:30:30.741Z,68.00
2017-12-19T07:31:30.731Z,68.00
2017-12-19T07:32:30.727Z,68.00
2017-12-19T07:33:30.720Z,68.00
2017-12-19T07:34:30.711Z,68.00
2017-12-19T07:35:30.706Z,76.00
2017-12-19T07:36:30.700Z,76.00
2017-12-19T07:37:30.697Z,80.00
2017-12-19T07:38:30.682Z,80.00
2017-12-19T07:39:30.681Z,80.00
2017-12-19T07:40:30.670Z,80.00
2017-12-19T07:41:30.665Z,80.00
2017-12-19T07:42:30.658Z,80.00
2017-12-19T07:43:30.646Z,80.00
2017-12-19T07:44:30.649Z,84.00
2017-12-19T07:45:30.635Z,92.00
2017-12-19T07:46:30.627Z,96.00
2017-12-19T07:47:30.620Z,100.00
2017-12-19T07:48:30.622Z,104.00
2017-12-19T07:49:30.611Z,104.00
2017-12-19T07:50:30.598Z,104.00
2017-12-19T07:51:30.594Z,100.00
2017-12-19T07:52:30.585Z,96.00
2017-12-19T07:53:30.580Z,92.00
2017-12-19T07:54:30.571Z,96.00
2017-12-19T07:55:30.563Z,92.00
2017-12-19T07:56:30.558Z,100.00
2017-12-19T07:57:30.697Z,104.00
2017-12-19T07:58:30.544Z,116.00
2017-12-19T07:59:30.537Z,116.00
2017-12-19T08:00:30.585Z,124.00
2017-12-19T08:01:30.527Z,124.00
2017-12-19T08:02:30.516Z,120.00
2017-12-19T08:03:30.508Z,124.00
2017-12-19T08:04:30.502Z,128.00
2017-12-19T08:05:30.496Z,132.00
2017-12-19T08:06:30.508Z,136.00
2017-12-19T08:07:30.480Z,132.00
2017-12-19T08:08:30.480Z,128.00
2017-12-19T08:09:30.468Z,132.00
2017-12-19T08:10:30.476Z,140.00
2017-12-19T08:11:30.454Z,136.00
2017-12-19T08:12:30.447Z,136.00
2017-12-19T08:13:30.440Z,148.00
2017-12-19T08:14:30.432Z,156.00
2017-12-19T08:15:30.426Z,148.00
2017-12-19T08:16:30.421Z,148.00
2017-12-19T08:17:31.224Z,140.00
2017-12-19T08:18:30.405Z,140.00
2017-12-19T08:19:30.400Z,140.00
2017-12-19T08:20:30.393Z,144.00
2017-12-19T08:21:30.387Z,148.00
2017-12-19T08:22:30.380Z,144.00
2017-12-19T08:23:30.373Z,140.00
2017-12-19T08:24:30.369Z,140.00
2017-12-19T08:25:30.359Z,136.00
2017-12-19T08:26:30.357Z,132.00
2017-12-19T08:27:30.345Z,136.00
2017-12-19T08:28:30.339Z,132.00
2017-12-19T08:29:30.334Z,124.00
2017-12-19T08:30:30.327Z,120.00
2017-12-19T08:31:30.318Z,120.00
2017-12-19T08:32:30.366Z,124.00
2017-12-19T08:33:30.305Z,124.00
2017-12-19T08:34:30.301Z,120.00
2017-12-19T08:35:30.295Z,136.00
2017-12-19T08:36:30.287Z,136.00
2017-12-19T08:37:30.278Z,152.00
2017-12-19T08:38:30.272Z,176.00
2017-12-19T08:39:30.268Z,212.00
2017-12-19T08:40:30.259Z,228.00
2017-12-19T08:41:30.288Z,220.00
2017-12-19T08:42:30.246Z,224.00
2017-12-19T08:43:30.238Z,220.00
2017-12-19T08:44:30.231Z,212.00
2017-12-19T08:45:30.226Z,208.00
2017-12-19T08:46:30.218Z,216.00
2017-12-19T08:47:30.213Z,220.00
2017-12-19T08:48:30.203Z,228.00
2017-12-19T08:49:30.200Z,244.00
2017-12-19T08:50:30.194Z,248.00
2017-12-19T08:51:30.185Z,244.00
2017-12-19T08:52:30.181Z,240.00
2017-12-19T08:53:30.171Z,248.00
2017-12-19T08:54:30.163Z,248.00
2017-12-19T08:55:30.157Z,252.00
2017-12-19T08:56:30.149Z,268.00
2017-12-19T08:57:30.149Z,272.00
2017-12-19T08:58:30.140Z,276.00
2017-12-19T08:59:30.131Z,276.00
2017-12-19T09:00:30.124Z,276.00
2017-12-19T09:01:30.118Z,280.00
2017-12-19T09:02:30.110Z,288.00
2017-12-19T09:03:30.102Z,280.00
2017-12-19T09:04:30.099Z,276.00
2017-12-19T09:05:30.089Z,288.00
2017-12-19T09:06:30.099Z,288.00
2017-12-19T09:07:30.079Z,308.00
2017-12-19T09:08:30.070Z,320.00
2017-12-19T09:09:30.064Z,332.00
2017-12-19T09:10:30.057Z,340.00
2017-12-19T09:11:30.049Z,344.00
2017-12-19T09:12:30.043Z,344.00
2017-12-19T09:13:30.046Z,328.00
2017-12-19T09:14:30.033Z,332.00
2017-12-19T09:15:30.030Z,340.00
2017-12-19T09:16:30.017Z,360.00
2017-12-19T09:17:30.039Z,384.00
2017-12-19T09:18:30.006Z,412.00
2017-12-19T09:19:29.999Z,428.00
2017-12-19T09:20:29.991Z,432.00
2017-12-19T09:21:29.986Z,408.00
2017-12-19T09:22:29.980Z,388.00
2017-12-19T09:23:29.972Z,400.00
2017-12-19T09:24:29.969Z,428.00
2017-12-19T09:25:29.960Z,460.00
2017-12-19T09:26:29.950Z,480.00
2017-12-19T09:27:29.948Z,480.00
2017-12-19T09:28:29.937Z,484.00
2017-12-19T09:29:29.932Z,488.00
2017-12-19T09:30:29.925Z,484.00
2017-12-19T09:31:29.923Z,480.00
2017-12-19T09:32:29.914Z,464.00
2017-12-19T09:33:29.920Z,440.00
2017-12-19T09:34:29.905Z,440.00
2017-12-19T09:35:29.893Z,444.00
2017-12-19T09:36:29.890Z,436.00
2017-12-19T09:37:29.883Z,432.00
2017-12-19T09:38:29.885Z,448.00
2017-12-19T09:39:29.869Z,488.00
2017-12-19T09:40:29.861Z,540.00
2017-12-19T09:41:29.856Z,600.00
2017-12-19T09:42:29.851Z,640.00
2017-12-19T09:43:29.841Z,660.00
2017-12-19T09:44:29.837Z,676.00
2017-12-19T09:45:29.878Z,664.00
2017-12-19T09:46:29.823Z,684.00
2017-12-19T09:47:29.816Z,716.00
2017-12-19T09:48:29.810Z,680.00
2017-12-19T09:49:29.806Z,624.00
2017-12-19T09:50:29.800Z,612.00
2017-12-19T09:51:29.795Z,592.00
2017-12-19T09:52:29.786Z,552.00
2017-12-19T09:53:29.779Z,500.00
2017-12-19T09:54:29.771Z,488.00
2017-12-19T09:55:29.766Z,496.00
2017-12-19T09:56:29.763Z,504.00
2017-12-19T09:57:29.756Z,460.00
2017-12-19T09:58:29.745Z,440.00
2017-12-19T09:59:29.741Z,456.00
2017-12-19T10:00:29.740Z,492.00
2017-12-19T10:01:29.727Z,496.00
2017-12-19T10:02:29.720Z,484.00
2017-12-19T10:03:29.724Z,516.00
2017-12-19T10:04:29.721Z,556.00
2017-12-19T10:05:29.707Z,768.00
2017-12-19T10:06:29.692Z,732.00
2017-12-19T10:07:29.688Z,652.00
2017-12-19T10:08:29.680Z,576.00
2017-12-19T10:09:29.678Z,600.00
2017-12-19T10:10:29.671Z,704.00
2017-12-19T10:11:29.663Z,764.00
2017-12-19T10:12:29.657Z,752.00
2017-12-19T10:13:29.650Z,756.00
2017-12-19T10:14:29.643Z,740.00
2017-12-19T10:15:29.636Z,712.00
2017-12-19T10:16:29.655Z,644.00
2017-12-19T10:17:29.624Z,600.00
2017-12-19T10:18:29.617Z,588.00
2017-12-19T10:19:29.612Z,636.00
2017-12-19T10:20:29.607Z,728.00
2017-12-19T10:21:29.600Z,652.00
2017-12-19T10:22:29.619Z,652.00
2017-12-19T10:23:29.592Z,664.00
2017-12-19T10:24:29.584Z,684.00
2017-12-19T10:25:29.575Z,764.00
2017-12-19T10:26:29.568Z,896.00
2017-12-19T10:27:29.564Z,932.00
2017-12-19T10:28:29.558Z,836.00
2017-12-19T10:29:29.551Z,788.00
2017-12-19T10:30:29.543Z,840.00
2017-12-19T10:31:29.546Z,1000.00
2017-12-19T10:32:29.672Z,1140.00
2017-12-19T10:33:29.580Z,1172.00
2017-12-19T10:34:29.945Z,1108.00
2017-12-19T10:35:29.513Z,1044.00
2017-12-19T10:36:30.331Z,972.00
2017-12-19T10:37:29.669Z,900.00
2017-12-19T10:38:30.163Z,880.00
2017-12-19T10:39:30.649Z,868.00
2017-12-19T10:40:30.117Z,852.00
2017-12-19T10:41:29.505Z,840.00
2017-12-19T10:42:30.761Z,776.00
2017-12-19T10:43:29.569Z,716.00
2017-12-19T10:44:29.866Z,684.00
2017-12-19T10:45:29.454Z,676.00
2017-12-19T10:46:29.448Z,676.00
2017-12-19T10:47:29.458Z,736.00
2017-12-19T10:48:29.436Z,804.00
2017-12-19T10:49:29.429Z,848.00
2017-12-19T10:50:29.440Z,832.00
2017-12-19T10:51:29.427Z,812.00
2017-12-19T10:52:29.411Z,796.00
2017-12-19T10:53:29.406Z,788.00
2017-12-19T10:54:29.418Z,716.00
2017-12-19T10:55:29.396Z,672.00
2017-12-19T10:56:29.390Z,628.00
2017-12-19T10:57:29.380Z,576.00
2017-12-19T10:58:29.372Z,552.00
2017-12-19T10:59:29.366Z,540.00
2017-12-19T11:00:29.361Z,520.00
2017-12-19T11:01:29.357Z,508.00
2017-12-19T11:02:29.371Z,500.00
2017-12-19T11:03:29.358Z,496.00
2017-12-19T11:04:29.433Z,496.00
2017-12-19T11:05:29.332Z,496.00
2017-12-19T11:06:29.327Z,500.00
2017-12-19T11:07:29.323Z,504.00
2017-12-19T11:08:29.316Z,512.00
2017-12-19T11:09:29.307Z,536.00
2017-12-19T11:10:29.304Z,532.00
2017-12-19T11:11:29.299Z,532.00
2017-12-19T11:12:29.395Z,548.00
2017-12-19T11:13:29.284Z,572.00
2017-12-19T11:14:29.279Z,564.00
2017-12-19T11:15:29.273Z,540.00
2017-12-19T11:16:29.265Z,536.00
2017-12-19T11:17:29.369Z,544.00
2017-12-19T11:18:29.255Z,544.00
2017-12-19T11:19:29.250Z,512.00
2017-12-19T11:20:29.258Z,488.00
2017-12-19T11:21:29.237Z,484.00
2017-12-19T11:22:29.229Z,500.00
2017-12-19T11:23:29.222Z,520.00
2017-12-19T11:24:29.218Z,532.00
2017-12-19T11:25:29.212Z,564.00
2017-12-19T11:26:29.207Z,576.00
2017-12-19T11:27:29.201Z,580.00
2017-12-19T11:28:29.201Z,564.00
2017-12-19T11:29:29.187Z,524.00
2017-12-19T11:30:29.185Z,504.00
2017-12-19T11:31:29.175Z,508.00
2017-12-19T11:32:29.169Z,512.00
2017-12-19T11:33:29.164Z,504.00
2017-12-19T11:34:29.159Z,496.00
2017-12-19T11:35:29.164Z,492.00
2017-12-19T11:36:29.144Z,484.00
2017-12-19T11:37:29.139Z,488.00
2017-12-19T11:38:29.133Z,464.00
2017-12-19T11:39:29.130Z,464.00
2017-12-19T11:40:29.120Z,464.00
2017-12-19T11:41:29.124Z,464.00
2017-12-19T11:42:29.106Z,476.00
2017-12-19T11:43:29.106Z,476.00
2017-12-19T11:44:29.094Z,472.00
2017-12-19T11:45:29.093Z,464.00
2017-12-19T11:46:29.089Z,468.00
2017-12-19T11:47:29.074Z,480.00
2017-12-19T11:48:29.071Z,508.00
2017-12-19T11:49:29.062Z,536.00
2017-12-19T11:50:29.059Z,552.00
2017-12-19T11:51:29.053Z,568.00
2017-12-19T11:52:29.045Z,588.00
2017-12-19T11:53:29.053Z,612.00
2017-12-19T11:54:29.041Z,624.00
2017-12-19T11:55:29.110Z,620.00
2017-12-19T11:56:29.021Z,612.00
2017-12-19T11:57:29.016Z,632.00
2017-12-19T11:58:29.029Z,648.00
2017-12-19T11:59:29.004Z,652.00
2017-12-19T12:00:28.998Z,672.00
2017-12-19T12:01:28.989Z,700.00
2017-12-19T12:02:28.995Z,724.00
2017-12-19T12:03:28.976Z,752.00
2017-12-19T12:04:28.971Z,748.00
2017-12-19T12:05:28.966Z,728.00
2017-12-19T12:06:28.959Z,720.00
2017-12-19T12:07:28.954Z,712.00
2017-12-19T12:08:28.947Z,720.00
2017-12-19T12:09:28.946Z,732.00
2017-12-19T12:10:28.942Z,728.00
2017-12-19T12:11:28.930Z,720.00
2017-12-19T12:12:28.925Z,748.00
2017-12-19T12:13:28.916Z,752.00
2017-12-19T12:14:28.909Z,732.00
2017-12-19T12:15:28.910Z,696.00
2017-12-19T12:16:28.898Z,668.00
2017-12-19T12:17:28.909Z,652.00
2017-12-19T12:18:28.904Z,668.00
2017-12-19T12:19:28.880Z,728.00
2017-12-19T12:20:28.878Z,756.00
2017-12-19T12:21:28.870Z,728.00
2017-12-19T12:22:28.865Z,696.00
2017-12-19T12:23:28.860Z,668.00
2017-12-19T12:24:28.848Z,652.00
2017-12-19T12:25:28.842Z,652.00
2017-12-19T12:26:28.840Z,672.00
2017-12-19T12:27:28.831Z,692.00
2017-12-19T12:28:28.825Z,700.00
2017-12-19T12:29:28.817Z,708.00
2017-12-19T12:30:28.812Z,692.00
2017-12-19T12:31:28.810Z,656.00
2017-12-19T12:32:28.801Z,640.00
2017-12-19T12:33:28.795Z,628.00
2017-12-19T12:34:28.789Z,612.00
2017-12-19T12:35:28.791Z,604.00
2017-12-19T12:36:28.777Z,604.00
2017-12-19T12:37:28.771Z,624.00
2017-12-19T12:38:28.763Z,648.00
2017-12-19T12:39:28.757Z,664.00
2017-12-19T12:40:28.755Z,652.00
2017-12-19T12:41:28.800Z,652.00
2017-12-19T12:42:30.247Z,656.00
2017-12-19T12:43:28.735Z,656.00
2017-12-19T12:44:28.982Z,624.00
2017-12-19T12:45:28.949Z,604.00
2017-12-19T12:46:28.803Z,576.00
2017-12-19T12:47:29.615Z,556.00
2017-12-19T12:48:29.085Z,564.00
2017-12-19T12:49:29.055Z,580.00
2017-12-19T12:50:28.726Z,588.00
2017-12-19T12:51:28.685Z,588.00
2017-12-19T12:52:28.695Z,600.00
2017-12-19T12:53:28.678Z,604.00